Time;durP1;ratioP1;P1;durP2;ratioP2;P2;SDS_P1;SDS_P2;PMS_P1;PMS_P2;Temp;Humidity;BMP_temperature;BMP_pressure;BME280_temperature;BME280_humidity;BME280_pressure;Samples;Min_cycle;Max_cycle;Signal;HPM_P1;HPM_P2
2022/01/30 00:02:18;;;;;;;35.05;13.18;;;;;;;-0.10;53.90;95426.66;4939306;28;20038;-76
2022/01/30 00:04:43;;;;;;;32.60;18.02;;;;;;;-0.08;54.11;95418.84;4983459;28;20046;-76
2022/01/30 00:07:09;;;;;;;19.98;11.50;;;;;;;-0.12;54.20;95415.78;4983832;28;20039;-76
2022/01/30 00:09:34;;;;;;;16.73;10.82;;;;;;;-0.08;54.49;95418.84;4984033;28;20042;-76
2022/01/30 00:12:03;;;;;;;15.45;9.07;;;;;;;-0.11;54.23;95414.84;4963990;28;20030;-76
2022/01/30 00:14:32;;;;;;;14.93;8.55;;;;;;;-0.10;54.04;95406.22;4982614;28;20062;-77
2022/01/30 00:17:05;;;;;;;15.63;8.65;;;;;;;-0.15;54.28;95402.53;4981785;28;20090;-77
2022/01/30 00:19:47;;;;;;;13.27;8.38;;;;;;;-0.20;54.62;95402.16;4983784;28;20160;-75
2022/01/30 00:24:51;;;;;;;14.98;8.38;;;;;;;-0.36;54.83;95385.75;4982209;23;20043;-76
2022/01/30 00:27:18;;;;;;;23.63;11.25;;;;;;;-0.40;55.30;95388.78;4983304;28;20046;-76
2022/01/30 00:29:44;;;;;;;25.77;10.98;;;;;;;-0.35;55.00;95389.13;4987176;28;20073;-76
2022/01/30 00:32:39;;;;;;;24.40;11.35;;;;;;;-0.32;55.59;95376.88;4992978;28;20038;-75
2022/01/30 00:35:10;;;;;;;24.02;11.57;;;;;;;-0.25;55.38;95374.50;4938266;28;20058;-77
2022/01/30 00:37:40;;;;;;;17.17;8.63;;;;;;;-0.18;54.92;95372.94;4982574;28;20038;-77
2022/01/30 00:40:06;;;;;;;14.02;8.43;;;;;;;-0.10;54.71;95372.19;4981117;28;20051;-74
2022/01/30 00:42:31;;;;;;;14.32;8.32;;;;;;;-0.15;54.17;95361.63;4982484;28;20038;-75
2022/01/30 00:44:57;;;;;;;17.90;8.95;;;;;;;-0.08;54.27;95378.75;4983117;28;20041;-75
2022/01/30 00:47:22;;;;;;;19.92;10.43;;;;;;;-0.09;53.97;95371.22;4981964;28;20042;-76
2022/01/30 00:49:48;;;;;;;17.13;8.55;;;;;;;-0.12;54.12;95361.31;4982252;28;20046;-76
2022/01/30 00:52:16;;;;;;;10.00;6.57;;;;;;;-0.20;54.06;95356.94;4983247;28;20093;-76
2022/01/30 00:54:43;;;;;;;12.00;7.28;;;;;;;-0.28;54.37;95366.34;4963057;28;20073;-76
2022/01/30 00:57:08;;;;;;;11.80;8.23;;;;;;;-0.38;54.43;95351.09;4982098;28;20073;-75
2022/01/30 00:59:34;;;;;;;19.95;8.60;;;;;;;-0.52;55.19;95351.66;4981526;28;20038;-75
2022/01/30 01:01:59;;;;;;;15.00;7.45;;;;;;;-0.56;55.37;95342.69;4983065;28;20034;-75
2022/01/30 01:04:25;;;;;;;8.65;6.63;;;;;;;-0.62;54.99;95339.81;4981737;28;20457;-75
2022/01/30 01:06:50;;;;;;;8.63;6.13;;;;;;;-0.76;55.45;95330.13;4982349;28;20042;-77
2022/01/30 01:09:20;;;;;;;9.95;7.18;;;;;;;-0.87;56.01;95332.91;4983268;28;20043;-77
2022/01/30 01:12:11;;;;;;;13.23;6.90;;;;;;;-0.92;55.82;95330.00;4980811;28;20043;-77
2022/01/30 01:25:17;;;;;;;11.65;8.63;;;;;;;-0.93;56.45;95300.34;4966203;28;20057;-76
2022/01/30 01:27:43;;;;;;;14.10;8.70;;;;;;;-1.03;56.22;95300.41;4976147;28;20042;-75
2022/01/30 01:30:09;;;;;;;13.18;8.20;;;;;;;-1.07;56.55;95299.09;4976804;28;20062;-75
2022/01/30 01:32:34;;;;;;;12.30;6.80;;;;;;;-1.13;56.72;95288.69;4982412;28;20508;-75
2022/01/30 01:35:00;;;;;;;10.20;7.78;;;;;;;-1.27;57.15;95288.28;4981706;28;20039;-76
2022/01/30 01:37:26;;;;;;;12.55;7.68;;;;;;;-1.35;57.28;95290.75;4982621;28;20085;-77
2022/01/30 01:39:51;;;;;;;13.35;7.50;;;;;;;-1.34;57.63;95278.78;4981924;28;20521;-75
2022/01/30 01:42:19;;;;;;;14.88;9.00;;;;;;;-1.40;57.80;95281.94;4981360;28;20049;-75
2022/01/30 01:44:49;;;;;;;15.10;9.48;;;;;;;-1.40;57.65;95282.75;4981649;28;20069;-75
2022/01/30 01:47:17;;;;;;;13.05;7.82;;;;;;;-1.37;57.94;95272.25;4981793;28;20482;-78
2022/01/30 01:49:43;;;;;;;13.60;9.23;;;;;;;-1.42;57.94;95271.88;4982016;28;20041;-77
2022/01/30 01:52:19;;;;;;;16.92;8.60;;;;;;;-1.34;57.92;95269.38;4963674;28;20043;-77
2022/01/30 01:54:56;;;;;;;14.52;8.23;;;;;;;-1.28;58.15;95263.72;4975741;28;20501;-77
2022/01/30 01:57:22;;;;;;;19.33;9.52;;;;;;;-1.23;57.78;95264.06;4979729;28;20127;-76
2022/01/30 01:59:48;;;;;;;16.67;8.18;;;;;;;-1.15;57.80;95257.41;4981780;28;20414;-76
2022/01/30 02:02:14;;;;;;;17.13;8.77;;;;;;;-1.09;57.63;95254.28;4982647;28;20066;-76
2022/01/30 02:04:41;;;;;;;28.55;11.73;;;;;;;-1.02;57.90;95255.28;4981894;28;20030;-76
2022/01/30 02:07:44;;;;;;;49.42;18.27;;;;;;;-0.99;57.54;95250.66;4982164;28;20035;-76
2022/01/30 02:09:52;;;;;;;65.82;20.48;;;;;;;-0.93;57.61;95255.19;4963779;28;20133;-76
2022/01/30 02:12:24;;;;;;;38.53;16.00;;;;;;;-0.85;57.09;95266.38;4979822;28;20050;-76
2022/01/30 02:27:58;;;;;;;27.70;13.55;;;;;;;-1.09;56.91;95249.97;4981634;28;20045;-76
2022/01/30 02:30:26;;;;;;;29.98;13.10;;;;;;;-1.16;56.80;95250.69;4979007;28;20043;-76
2022/01/30 02:32:54;;;;;;;34.05;12.27;;;;;;;-1.17;56.63;95237.13;4981255;28;20049;-76
2022/01/30 02:35:19;;;;;;;44.92;13.75;;;;;;;-1.12;56.30;95236.72;4980586;28;20049;-76
2022/01/30 02:37:47;;;;;;;35.28;13.70;;;;;;;-1.08;56.58;95230.34;4981131;28;20030;-76
2022/01/30 02:40:13;;;;;;;47.80;19.48;;;;;;;-1.18;56.21;95222.78;4980015;28;20046;-76
2022/01/30 02:42:44;;;;;;;33.80;14.35;;;;;;;-1.15;56.74;95214.03;4979738;28;20093;-76
2022/01/30 02:45:11;;;;;;;41.08;13.25;;;;;;;-1.24;56.69;95214.00;4980061;28;20039;-76
2022/01/30 02:47:56;;;;;;;21.63;11.43;;;;;;;-1.22;56.54;95212.09;4979452;28;20038;-76
2022/01/30 02:50:35;;;;;;;39.28;12.90;;;;;;;-1.26;57.00;95208.25;4951072;28;20434;-76
2022/01/30 02:53:03;;;;;;;43.35;17.38;;;;;;;-1.13;56.12;95201.94;4981400;28;20574;-76
2022/01/30 02:55:29;;;;;;;43.13;17.27;;;;;;;-1.21;55.65;95205.22;4942287;28;20470;-76
2022/01/30 02:57:54;;;;;;;42.85;16.60;;;;;;;-1.22;56.40;95208.72;4976285;28;20043;-76
2022/01/30 03:00:20;;;;;;;22.35;10.57;;;;;;;-1.19;56.33;95200.78;4980571;28;20035;-76
2022/01/30 03:02:45;;;;;;;23.48;11.07;;;;;;;-1.17;56.30;95195.53;4979466;28;20047;-76
2022/01/30 03:05:11;;;;;;;30.10;12.27;;;;;;;-1.11;55.72;95184.72;4973479;28;20039;-76
2022/01/30 03:07:36;;;;;;;20.00;9.45;;;;;;;-1.12;56.17;95176.28;4970692;28;20034;-76
2022/01/30 03:10:02;;;;;;;23.15;10.55;;;;;;;-1.09;55.91;95186.16;4953653;28;20578;-77
2022/01/30 03:12:27;;;;;;;34.75;13.85;;;;;;;-1.05;56.15;95192.56;4980431;28;20026;-76
2022/01/30 03:14:53;;;;;;;26.58;12.48;;;;;;;-1.00;56.09;95192.91;4978918;28;20038;-76
2022/01/30 03:17:18;;;;;;;19.25;9.88;;;;;;;-1.04;56.31;95194.16;4980853;28;20410;-76
2022/01/30 03:19:44;;;;;;;44.70;16.05;;;;;;;-1.01;56.11;95203.28;4980927;28;20049;-76
2022/01/30 03:22:10;;;;;;;25.65;10.85;;;;;;;-0.97;56.11;95196.94;4963171;28;20046;-77
2022/01/30 03:24:37;;;;;;;32.78;14.48;;;;;;;-0.97;55.90;95199.47;4961379;28;20034;-76
2022/01/30 03:27:04;;;;;;;18.25;10.50;;;;;;;-0.96;55.71;95193.44;4979712;28;20042;-76
2022/01/30 03:29:29;;;;;;;16.67;8.45;;;;;;;-1.00;56.16;95194.66;4980476;28;20034;-76
2022/01/30 03:31:55;;;;;;;20.55;10.55;;;;;;;-1.08;55.97;95192.88;4978421;28;20135;-76
2022/01/30 03:34:20;;;;;;;23.42;9.70;;;;;;;-1.12;56.00;95203.53;4979602;28;20034;-76
2022/01/30 03:36:46;;;;;;;23.30;10.70;;;;;;;-1.17;56.11;95190.41;4979921;28;20026;-76
2022/01/30 03:39:11;;;;;;;15.13;9.75;;;;;;;-1.16;56.49;95192.00;4978595;28;20126;-76
2022/01/30 03:41:37;;;;;;;18.73;9.75;;;;;;;-1.14;56.65;95200.31;4979861;28;20045;-76
2022/01/30 03:44:02;;;;;;;15.02;10.00;;;;;;;-1.09;56.38;95209.13;4979495;28;20483;-77
2022/01/30 03:46:28;;;;;;;12.35;8.27;;;;;;;-1.11;56.31;95207.69;4962021;28;20622;-76
2022/01/30 03:48:53;;;;;;;21.35;11.05;;;;;;;-1.05;56.22;95207.09;4979370;28;20494;-75
2022/01/30 03:51:18;;;;;;;26.15;13.20;;;;;;;-1.09;55.81;95204.03;4980350;28;20038;-75
2022/01/30 03:53:44;;;;;;;19.15;10.65;;;;;;;-1.12;56.50;95199.25;4980618;28;20058;-76
2022/01/30 03:56:09;;;;;;;19.77;11.18;;;;;;;-1.13;56.63;95201.94;4962579;28;20039;-76
2022/01/30 03:58:35;;;;;;;26.70;13.75;;;;;;;-1.14;56.91;95198.59;4979878;28;20101;-75
2022/01/30 04:01:00;;;;;;;20.80;12.05;;;;;;;-1.09;56.40;95190.47;4986341;28;20549;-76
2022/01/30 04:03:26;;;;;;;16.90;9.85;;;;;;;-1.10;56.43;95186.31;4979634;28;20042;-76
2022/01/30 04:05:51;;;;;;;22.63;12.55;;;;;;;-1.07;56.27;95175.81;4956696;28;20035;-75
2022/01/30 04:08:17;;;;;;;25.27;11.82;;;;;;;-1.17;56.51;95180.22;4977590;28;20125;-76
2022/01/30 04:10:43;;;;;;;21.88;10.35;;;;;;;-1.23;56.13;95166.31;4979571;28;20057;-75
2022/01/30 04:13:09;;;;;;;17.42;10.32;;;;;;;-1.25;56.65;95163.13;4961467;28;20069;-76
2022/01/30 04:15:34;;;;;;;31.05;13.15;;;;;;;-1.17;56.47;95170.00;4979466;28;20038;-76
2022/01/30 04:18:01;;;;;;;32.47;16.45;;;;;;;-1.12;55.82;95162.72;4979367;28;20077;-76
2022/01/30 04:20:27;;;;;;;28.67;14.77;;;;;;;-1.06;56.20;95146.78;4980288;28;20101;-76
2022/01/30 04:22:53;;;;;;;18.52;10.35;;;;;;;-1.12;55.83;95142.31;4979511;28;20049;-76
2022/01/30 04:25:18;;;;;;;27.33;11.18;;;;;;;-1.19;56.26;95136.19;4959293;28;20061;-76
2022/01/30 04:27:43;;;;;;;17.38;10.88;;;;;;;-1.13;55.77;95135.59;4974005;28;20038;-76
2022/01/30 04:30:11;;;;;;;18.70;11.02;;;;;;;-1.11;55.93;95126.03;4980083;28;20097;-76
2022/01/30 04:32:41;;;;;;;27.45;11.38;;;;;;;-1.09;55.73;95121.56;4978877;28;20046;-76
2022/01/30 04:57:15;;;;;;;27.83;14.02;;;;;;;-0.91;54.99;95135.06;4982422;28;20089;-76
2022/01/30 04:59:49;;;;;;;38.03;17.67;;;;;;;-0.89;55.60;95138.25;4982971;28;20154;-76
2022/01/30 05:07:36;;;;;;;26.08;12.65;;;;;;;-0.70;54.75;95117.56;4965633;28;20053;-76
2022/01/30 05:10:02;;;;;;;35.70;14.73;;;;;;;-0.71;54.57;95100.66;4964978;28;20050;-76
2022/01/30 05:12:34;;;;;;;35.45;15.05;;;;;;;-0.63;54.34;95093.03;4948483;28;20094;-76
2022/01/30 05:15:00;;;;;;;40.60;18.90;;;;;;;-0.64;54.74;95080.41;4982257;28;20039;-76
2022/01/30 05:17:26;;;;;;;43.40;21.67;;;;;;;-0.47;54.87;95073.59;4982559;28;20034;-76
2022/01/30 05:19:51;;;;;;;46.42;18.25;;;;;;;-0.39;53.89;95063.38;4982408;28;20050;-76
2022/01/30 05:22:17;;;;;;;33.22;16.70;;;;;;;-0.38;54.09;95064.97;4981112;28;20147;-76
2022/01/30 05:24:43;;;;;;;35.10;15.50;;;;;;;-0.44;54.17;95037.50;4981275;28;20490;-76
2022/01/30 05:27:09;;;;;;;32.15;16.60;;;;;;;-0.39;54.33;95030.16;4982196;28;20513;-75
2022/01/30 05:32:09;;;;;;;39.55;19.77;;;;;;;-0.16;53.47;95043.91;4993853;23;20053;-75
2022/01/30 05:34:35;;;;;;;40.53;17.05;;;;;;;-0.08;53.35;95061.78;4985687;28;20042;-77
2022/01/30 05:37:00;;;;;;;45.83;19.88;;;;;;;-0.09;53.29;95055.06;4990696;28;20525;-77
2022/01/30 05:39:26;;;;;;;37.25;19.42;;;;;;;-0.11;53.13;95066.41;4973333;28;20810;-76
2022/01/30 05:41:52;;;;;;;41.13;19.75;;;;;;;-0.32;53.88;95070.25;4991877;28;20501;-76
2022/01/30 05:44:21;;;;;;;38.35;16.65;;;;;;;-0.39;54.00;95088.91;4973935;28;20034;-76
2022/01/30 05:46:54;;;;;;;41.60;15.98;;;;;;;-0.37;54.24;95097.22;4974445;28;20049;-76
2022/01/30 05:49:20;;;;;;;30.63;15.88;;;;;;;-0.31;54.43;95096.59;4954103;28;20035;-77
2022/01/30 05:51:48;;;;;;;20.58;14.25;;;;;;;-0.22;54.85;95098.19;4958797;28;20062;-76
2022/01/30 05:54:14;;;;;;;19.35;12.05;;;;;;;-0.15;54.16;95085.59;4985364;28;20479;-76
2022/01/30 05:56:39;;;;;;;22.40;13.45;;;;;;;-0.07;54.43;95067.69;4990921;28;20034;-77
2022/01/30 05:59:05;;;;;;;28.25;13.48;;;;;;;-0.03;54.03;95059.53;4971256;28;20042;-75
2022/01/30 06:01:30;;;;;;;27.88;13.30;;;;;;;0.04;53.67;95069.13;4991120;28;20026;-76
2022/01/30 06:03:56;;;;;;;27.42;12.70;;;;;;;0.17;54.03;95074.56;4991347;28;20046;-77
2022/01/30 06:06:21;;;;;;;28.20;15.15;;;;;;;0.27;54.30;95055.50;4989878;28;20057;-77
2022/01/30 06:09:00;;;;;;;35.05;17.15;;;;;;;0.24;52.85;95050.72;4991528;28;20041;-75
2022/01/30 06:11:25;;;;;;;40.72;18.23;;;;;;;0.26;53.72;95042.91;4991299;28;20494;-76
2022/01/30 06:13:50;;;;;;;39.05;20.58;;;;;;;0.37;53.09;95042.56;4990430;28;20042;-77
2022/01/30 06:16:19;;;;;;;42.15;21.67;;;;;;;0.38;53.62;95033.13;4941524;28;20490;-77
2022/01/30 06:18:45;;;;;;;30.33;17.23;;;;;;;0.37;53.62;95031.53;4992676;23;20039;-77
2022/01/30 06:21:11;;;;;;;25.05;13.23;;;;;;;0.43;52.65;94998.41;4960370;28;20035;-77
2022/01/30 06:23:36;;;;;;;25.92;13.60;;;;;;;0.50;52.93;94998.56;4951959;28;20042;-76
2022/01/30 06:26:02;;;;;;;23.70;13.23;;;;;;;0.57;52.71;95030.19;4932891;29;20035;-76
2022/01/30 06:28:28;;;;;;;26.90;14.93;;;;;;;0.68;52.13;95029.84;4909930;29;20098;-76
2022/01/30 06:33:37;;;;;;;28.02;15.30;;;;;;;0.73;51.94;95011.44;4976180;28;20081;-76
2022/01/30 06:36:02;;;;;;;28.63;15.02;;;;;;;0.71;52.81;95000.56;4990721;22;20502;-75
2022/01/30 06:38:28;;;;;;;25.67;14.52;;;;;;;0.64;52.62;95005.53;4981432;28;20042;-75
2022/01/30 06:40:53;;;;;;;28.40;15.38;;;;;;;0.64;53.17;95014.97;4988558;28;20030;-75
2022/01/30 06:43:19;;;;;;;27.58;16.58;;;;;;;0.57;52.38;95018.19;4949886;28;20034;-75
2022/01/30 06:45:44;;;;;;;27.58;14.55;;;;;;;0.53;52.99;95034.84;4955969;28;20134;-75
2022/01/30 06:48:10;;;;;;;27.13;14.38;;;;;;;0.38;54.05;95056.94;4990615;28;20061;-75
2022/01/30 06:50:35;;;;;;;28.48;13.77;;;;;;;0.40;54.12;95055.03;4990155;28;20029;-75
2022/01/30 06:53:01;;;;;;;24.33;15.10;;;;;;;0.52;54.25;95046.03;4990368;28;20081;-77
2022/01/30 06:55:26;;;;;;;22.42;14.65;;;;;;;0.62;53.42;95032.25;4972402;28;20081;-77
2022/01/30 06:57:51;;;;;;;26.27;13.27;;;;;;;0.67;53.35;95012.09;4972540;28;20038;-77
2022/01/30 07:03:14;;;;;;;19.90;11.75;;;;;;;0.94;52.61;95021.09;4950090;29;20098;-74
2022/01/30 07:05:40;;;;;;;20.80;12.77;;;;;;;1.11;52.89;95018.28;4951065;29;20043;-77
2022/01/30 07:08:05;;;;;;;21.67;11.57;;;;;;;1.33;51.63;95013.38;4950877;28;20132;-75
2022/01/30 07:10:31;;;;;;;24.70;13.93;;;;;;;1.35;51.90;95008.88;4948780;29;20042;-77
2022/01/30 07:12:56;;;;;;;27.05;13.98;;;;;;;1.43;51.67;95006.25;4951475;29;20035;-78
2022/01/30 07:15:22;;;;;;;28.30;14.75;;;;;;;1.49;51.13;95008.13;4934462;29;20053;-76
2022/01/30 07:17:48;;;;;;;30.45;15.48;;;;;;;1.63;51.25;95009.97;4939328;29;20046;-77
2022/01/30 07:20:13;;;;;;;29.27;16.17;;;;;;;1.60;51.08;95006.91;4951573;29;20043;-76
2022/01/30 07:22:39;;;;;;;27.92;16.25;;;;;;;1.58;50.90;95019.91;4933226;29;20031;-78
2022/01/30 07:25:07;;;;;;;29.13;15.20;;;;;;;1.80;50.55;95018.31;4933884;29;20126;-78
2022/01/30 07:27:35;;;;;;;27.40;15.80;;;;;;;1.97;50.20;95024.91;4919497;29;20524;-76
2022/01/30 07:30:00;;;;;;;30.73;15.50;;;;;;;2.18;50.08;95031.13;4951745;29;20031;-78
2022/01/30 07:32:26;;;;;;;31.50;14.68;;;;;;;2.32;49.20;95031.16;4927566;29;20043;-77
2022/01/30 07:34:52;;;;;;;27.23;14.80;;;;;;;2.29;48.63;95021.25;4918719;29;20035;-77
2022/01/30 07:37:18;;;;;;;29.15;15.85;;;;;;;2.35;48.38;95033.38;4950736;29;20031;-79
2022/01/30 07:39:43;;;;;;;22.77;11.75;;;;;;;2.61;47.52;95039.88;4980430;23;20101;-77
2022/01/30 07:42:09;;;;;;;22.27;10.82;;;;;;;2.66;47.42;95037.56;4971455;28;20030;-77
2022/01/30 07:44:34;;;;;;;19.30;11.20;;;;;;;2.80;47.03;95033.41;4987648;28;20755;-77
2022/01/30 07:47:00;;;;;;;20.88;10.98;;;;;;;2.88;46.72;95016.09;4992106;28;20066;-76
2022/01/30 07:49:25;;;;;;;16.42;10.45;;;;;;;2.92;46.76;95024.25;4988008;28;20034;-77
2022/01/30 07:51:51;;;;;;;20.55;10.65;;;;;;;3.17;46.46;95027.31;4990070;28;20033;-77
2022/01/30 07:54:16;;;;;;;19.75;12.68;;;;;;;3.41;46.06;95019.25;4973092;28;20031;-79
2022/01/30 07:56:42;;;;;;;23.85;12.93;;;;;;;3.63;45.98;95009.00;4942229;28;20901;-77
2022/01/30 07:59:07;;;;;;;23.60;13.90;;;;;;;3.69;45.82;94998.78;4956256;28;20027;-77
2022/01/30 08:01:32;;;;;;;21.17;13.43;;;;;;;3.67;44.82;94997.38;4970237;28;20023;-77
2022/01/30 08:04:00;;;;;;;22.15;12.85;;;;;;;3.72;45.97;94995.81;4972396;28;20042;-77
2022/01/30 08:06:26;;;;;;;27.30;13.93;;;;;;;3.89;45.67;94975.78;4992643;23;20042;-77
2022/01/30 08:08:51;;;;;;;31.17;13.00;;;;;;;4.25;44.49;94985.16;4978225;28;20097;-77
2022/01/30 08:11:16;;;;;;;23.98;12.70;;;;;;;4.61;43.44;94975.47;4981475;28;20418;-77
2022/01/30 08:13:42;;;;;;;30.83;13.75;;;;;;;4.80;43.07;94967.03;4990250;23;20016;-77
2022/01/30 08:16:07;;;;;;;21.52;12.98;;;;;;;4.87;42.93;94969.63;4961293;28;20042;-77
2022/01/30 08:18:36;;;;;;;25.70;13.68;;;;;;;5.00;42.32;94963.72;4960621;28;20110;-76
2022/01/30 08:21:03;;;;;;;29.13;13.18;;;;;;;5.20;41.63;94971.53;4963036;28;20057;-77
2022/01/30 08:23:29;;;;;;;27.00;13.63;;;;;;;5.30;42.06;94974.53;4929710;28;20464;-77
2022/01/30 08:25:54;;;;;;;26.58;14.10;;;;;;;5.26;42.04;94979.28;4964722;28;20503;-77
2022/01/30 08:28:20;;;;;;;23.42;13.45;;;;;;;5.22;42.09;94978.09;4938626;28;20098;-77
2022/01/30 08:30:46;;;;;;;26.35;13.75;;;;;;;5.20;41.87;94969.72;4953414;28;20027;-77
2022/01/30 08:33:14;;;;;;;24.45;13.95;;;;;;;5.20;41.29;94979.25;4963226;28;20030;-77
2022/01/30 08:35:40;;;;;;;29.80;13.82;;;;;;;5.19;41.20;94982.81;4961576;28;20425;-77
2022/01/30 08:38:05;;;;;;;26.23;14.95;;;;;;;5.30;41.03;94966.78;4962295;28;20035;-77
2022/01/30 08:40:31;;;;;;;31.48;13.77;;;;;;;5.39;41.21;94969.00;4947144;28;20035;-78
2022/01/30 08:42:56;;;;;;;25.98;14.15;;;;;;;5.46;40.51;94973.38;4963940;28;20380;-77
2022/01/30 08:45:22;;;;;;;26.20;14.63;;;;;;;5.52;40.35;94975.97;4945674;28;20039;-77
2022/01/30 08:47:48;;;;;;;29.02;13.60;;;;;;;5.63;40.28;94979.75;4946640;28;20546;-77
2022/01/30 08:50:14;;;;;;;29.48;14.18;;;;;;;5.67;40.60;94980.94;4937609;28;20035;-77
2022/01/30 08:52:40;;;;;;;34.47;14.68;;;;;;;5.80;40.81;94970.63;4963640;28;20100;-77
2022/01/30 08:55:06;;;;;;;29.65;16.00;;;;;;;6.03;39.69;94969.50;4947781;28;20031;-77
2022/01/30 08:57:32;;;;;;;37.25;16.17;;;;;;;6.22;39.25;94963.50;4946279;28;20035;-81
2022/01/30 08:59:58;;;;;;;35.00;16.35;;;;;;;6.47;38.66;94976.56;4965336;28;20089;-77
2022/01/30 09:02:24;;;;;;;35.55;17.80;;;;;;;6.74;38.16;94977.31;4963318;28;20031;-76
2022/01/30 09:04:50;;;;;;;29.30;16.25;;;;;;;6.84;37.36;94982.84;4930433;28;20035;-76
2022/01/30 09:07:16;;;;;;;38.40;16.65;;;;;;;7.00;36.89;94977.22;4944178;28;20622;-76
2022/01/30 09:09:41;;;;;;;28.50;16.17;;;;;;;7.30;36.77;94976.66;4928372;28;20069;-76
2022/01/30 09:14:55;;;;;;;39.78;16.88;;;;;;;7.45;36.21;94977.97;4947603;28;20380;-75
2022/01/30 09:17:22;;;;;;;35.95;17.60;;;;;;;7.61;35.88;94976.69;4962669;28;20042;-74
2022/01/30 09:20:06;;;;;;;51.08;16.50;;;;;;;7.68;36.30;94972.28;4945700;28;20034;-78
2022/01/30 09:22:32;;;;;;;38.25;17.20;;;;;;;7.61;36.00;94974.09;4948105;28;20035;-79
2022/01/30 09:24:57;;;;;;;47.75;18.85;;;;;;;7.49;36.10;94976.59;4983104;23;20618;-77
2022/01/30 09:27:23;;;;;;;40.60;17.38;;;;;;;7.45;35.98;94959.88;4963654;28;20039;-77
2022/01/30 09:29:48;;;;;;;38.85;17.50;;;;;;;7.28;36.20;94947.63;4946526;28;20487;-77
2022/01/30 09:32:14;;;;;;;54.50;17.88;;;;;;;7.15;37.02;94944.13;4942680;28;20039;-77
2022/01/30 09:34:39;;;;;;;37.30;17.08;;;;;;;7.09;36.96;94932.03;4962699;28;20103;-76
2022/01/30 09:39:44;;;;;;;32.65;16.58;;;;;;;6.91;36.92;94903.47;4990460;23;20050;-76
2022/01/30 09:42:10;;;;;;;37.97;14.63;;;;;;;6.82;37.22;94902.91;4980844;28;20129;-76
2022/01/30 09:44:39;;;;;;;35.38;15.00;;;;;;;6.87;36.55;94902.31;4981912;28;20119;-78
2022/01/30 09:47:16;;;;;;;24.58;14.68;;;;;;;6.78;36.46;94894.00;4981780;28;20169;-75
2022/01/30 09:49:45;;;;;;;31.67;14.25;;;;;;;6.68;37.42;94885.09;4962999;28;20057;-77
2022/01/30 09:52:11;;;;;;;32.72;16.05;;;;;;;6.71;37.40;94879.53;4963779;28;20121;-78
2022/01/30 09:54:36;;;;;;;34.83;16.10;;;;;;;6.71;37.08;94879.53;4962949;28;20038;-82
2022/01/30 09:57:02;;;;;;;36.65;14.80;;;;;;;6.47;37.29;94870.66;4982500;28;20065;-76
2022/01/30 09:59:42;;;;;;;33.83;14.88;;;;;;;6.31;37.17;94864.16;4982947;28;20030;-75
2022/01/30 10:02:08;;;;;;;37.35;15.88;;;;;;;6.26;37.85;94862.19;4950816;28;20064;-75
2022/01/30 10:04:34;;;;;;;29.63;15.23;;;;;;;5.99;37.89;94858.88;4979766;28;20123;-76
2022/01/30 10:07:07;;;;;;;43.92;15.50;;;;;;;5.91;38.52;94846.19;4979664;28;20390;-75
2022/01/30 10:09:36;;;;;;;37.00;17.27;;;;;;;5.75;39.40;94851.75;4962603;28;20034;-75
2022/01/30 10:12:19;;;;;;;44.33;17.50;;;;;;;5.84;39.04;94842.00;4945266;28;20128;-74
2022/01/30 10:14:47;;;;;;;44.90;17.73;;;;;;;5.62;39.49;94839.66;4980032;28;20031;-76
2022/01/30 10:17:29;;;;;;;50.35;16.98;;;;;;;5.41;39.01;94850.97;4979819;28;20414;-76
2022/01/30 10:20:00;;;;;;;38.08;18.17;;;;;;;5.40;39.23;94851.19;4962637;28;20039;-76
2022/01/30 10:22:26;;;;;;;41.75;18.95;;;;;;;5.48;38.60;94863.06;4980253;28;20521;-76
2022/01/30 10:24:51;;;;;;;31.00;16.80;;;;;;;5.54;39.11;94859.72;4947479;28;20023;-76
2022/01/30 10:27:29;;;;;;;28.50;17.42;;;;;;;5.67;39.16;94867.44;4963244;28;20418;-75
2022/01/30 10:30:03;;;;;;;29.20;16.20;;;;;;;5.76;39.41;94855.13;4947020;28;20034;-76
2022/01/30 10:32:29;;;;;;;40.25;16.13;;;;;;;5.93;39.93;94831.31;4963313;28;20093;-76
2022/01/30 10:35:07;;;;;;;33.50;16.70;;;;;;;6.09;39.22;94824.13;4980052;28;20042;-76
2022/01/30 10:37:34;;;;;;;37.47;17.88;;;;;;;6.15;38.44;94820.72;4961792;28;20041;-76
2022/01/30 10:40:35;;;;;;;33.38;16.55;;;;;;;6.36;38.08;94830.00;4962416;28;20491;-75
2022/01/30 10:43:01;;;;;;;35.85;16.83;;;;;;;6.45;37.54;94824.38;4963077;28;20069;-75
2022/01/30 10:45:33;;;;;;;52.45;16.80;;;;;;;6.50;37.45;94805.66;4963007;28;20039;-75
2022/01/30 10:48:17;;;;;;;35.67;16.60;;;;;;;6.40;37.38;94790.63;4946033;28;20114;-75
2022/01/30 10:50:45;;;;;;;40.13;16.27;;;;;;;6.43;37.93;94784.25;4946840;28;20035;-76
2022/01/30 10:53:21;;;;;;;43.47;15.32;;;;;;;6.51;37.50;94784.81;4947020;28;20129;-76
2022/01/30 10:55:47;;;;;;;40.22;16.65;;;;;;;6.60;37.83;94791.31;4971272;28;20137;-76
2022/01/30 10:58:23;;;;;;;39.72;15.10;;;;;;;6.63;37.01;94790.09;4979835;28;20042;-75
2022/01/30 11:00:53;;;;;;;33.53;16.20;;;;;;;6.70;36.92;94784.91;4962566;28;20034;-76
2022/01/30 11:03:41;;;;;;;36.33;16.38;;;;;;;6.84;36.97;94781.25;4962688;28;20081;-76
2022/01/30 11:06:10;;;;;;;38.67;15.65;;;;;;;6.84;37.29;94781.25;4962297;28;20061;-76
2022/01/30 11:08:39;;;;;;;38.83;16.52;;;;;;;6.93;37.08;94779.97;4930455;28;20486;-76
2022/01/30 11:11:36;;;;;;;33.55;17.52;;;;;;;6.98;36.97;94751.69;4963065;28;20038;-75
2022/01/30 11:19:16;;;;;;;46.40;16.38;;;;;;;7.09;37.49;94732.94;4964423;28;20258;-75
2022/01/30 11:21:42;;;;;;;37.13;16.55;;;;;;;7.10;38.14;94729.34;4979770;28;20026;-75
2022/01/30 11:24:13;;;;;;;41.78;15.00;;;;;;;7.19;37.92;94742.81;4980146;28;20045;-76
2022/01/30 11:26:38;;;;;;;40.80;16.98;;;;;;;7.30;38.04;94738.72;4980123;28;20065;-76
2022/01/30 11:29:07;;;;;;;28.23;16.42;;;;;;;7.52;36.81;94734.75;4977885;28;20042;-75
2022/01/30 11:31:32;;;;;;;39.40;18.33;;;;;;;7.70;36.26;94734.75;4978468;28;20118;-76
2022/01/30 11:33:58;;;;;;;37.08;17.58;;;;;;;7.65;35.74;94732.03;4946111;28;20383;-75
2022/01/30 11:36:23;;;;;;;56.72;20.75;;;;;;;7.16;36.44;94743.22;4970366;28;20035;-76
2022/01/30 11:38:49;;;;;;;53.05;23.17;;;;;;;7.25;36.15;94728.22;4961135;28;20031;-75
2022/01/30 11:41:18;;;;;;;44.03;21.10;;;;;;;7.40;36.17;94713.16;4961656;28;20578;-75
2022/01/30 11:44:17;;;;;;;43.50;17.08;;;;;;;7.57;35.53;94708.22;4978929;28;20082;-76
2022/01/30 11:47:03;;;;;;;35.55;17.42;;;;;;;7.75;35.73;94706.41;4978569;28;20030;-75
2022/01/30 11:49:37;;;;;;;33.28;18.83;;;;;;;7.87;35.24;94692.75;4968886;28;20096;-76
2022/01/30 11:52:03;;;;;;;39.58;17.52;;;;;;;7.98;35.32;94694.63;4978888;28;20046;-75
2022/01/30 11:54:31;;;;;;;42.20;17.13;;;;;;;8.15;35.04;94685.22;4978982;28;20033;-75
2022/01/30 11:56:56;;;;;;;35.80;16.98;;;;;;;8.31;34.92;94678.66;4961548;28;20426;-74
2022/01/30 11:59:38;;;;;;;46.30;18.45;;;;;;;8.49;35.04;94673.44;4979902;28;20569;-75
2022/01/30 12:02:35;;;;;;;51.83;19.17;;;;;;;8.66;35.16;94676.16;4944797;28;20503;-76
2022/01/30 12:05:08;;;;;;;42.83;19.05;;;;;;;8.80;34.08;94682.72;4961082;28;20034;-75
2022/01/30 12:07:45;;;;;;;39.83;19.13;;;;;;;8.93;33.94;94681.72;4961248;28;20620;-75
2022/01/30 12:10:19;;;;;;;37.58;17.50;;;;;;;9.08;33.50;94689.06;4978870;28;20030;-76
2022/01/30 12:12:58;;;;;;;44.35;18.25;;;;;;;8.99;32.86;94686.81;4961030;28;20038;-75
2022/01/30 12:15:43;;;;;;;40.25;17.90;;;;;;;9.13;33.95;94673.63;4960940;28;20053;-76
2022/01/30 12:18:44;;;;;;;53.22;19.48;;;;;;;9.17;33.01;94667.75;4979755;28;20473;-76
2022/01/30 12:21:11;;;;;;;40.67;17.13;;;;;;;9.18;33.10;94660.75;4974096;28;20109;-76
2022/01/30 12:23:41;;;;;;;49.85;18.48;;;;;;;9.26;33.60;94655.22;4978602;28;20034;-76
2022/01/30 12:26:10;;;;;;;40.45;19.08;;;;;;;9.33;33.48;94650.72;4961726;28;20030;-77
2022/01/30 12:28:49;;;;;;;49.83;18.35;;;;;;;9.33;33.36;94642.91;4961794;28;20038;-76
2022/01/30 12:31:33;;;;;;;40.67;18.30;;;;;;;9.43;33.00;94635.34;4960754;28;20130;-76
2022/01/30 12:34:21;;;;;;;40.53;20.73;;;;;;;9.56;32.77;94639.50;4945228;28;20395;-76
2022/01/30 12:36:54;;;;;;;58.10;22.88;;;;;;;9.62;33.08;94641.97;4941990;28;20036;-76
2022/01/30 12:39:22;;;;;;;50.30;19.90;;;;;;;9.58;33.22;94633.03;4977454;28;20035;-76
2022/01/30 12:41:47;;;;;;;46.53;18.58;;;;;;;9.59;32.60;94637.22;4974562;28;20533;-76